createdAt,value
2022-12-11T00:00:04.211Z,33
2022-12-11T00:15:02.101Z,33
2022-12-11T00:30:02.714Z,33
2022-12-11T00:45:01.786Z,33.5
2022-12-11T01:00:04.977Z,33.5
2022-12-11T01:15:02.739Z,33.5
2022-12-11T01:30:05.739Z,33.5
2022-12-11T01:45:04.877Z,33.5
2022-12-11T02:00:03.179Z,33.5
2022-12-11T02:15:05.223Z,33.5
2022-12-11T02:30:03.932Z,33.5
2022-12-11T02:45:03.814Z,33.5
2022-12-11T03:00:02.686Z,33.5
2022-12-11T03:15:04.713Z,33.5
2022-12-11T03:30:05.029Z,33.5
2022-12-11T03:45:02.809Z,33.5
2022-12-11T04:00:03.808Z,33.5
2022-12-11T04:15:01.710Z,33.5
2022-12-11T04:30:01.920Z,33.5
2022-12-11T04:45:03.155Z,33.5
2022-12-11T05:00:03.182Z,33.5
2022-12-11T05:15:05.215Z,33.5
2022-12-11T05:30:04.920Z,33.5
2022-12-11T05:45:02.119Z,33.5
2022-12-11T06:00:03.759Z,33.5
2022-12-11T06:15:03.233Z,33.5
2022-12-11T06:30:02.759Z,33.5
2022-12-11T06:45:02.725Z,33.5
2022-12-11T07:00:02.758Z,33.5
2022-12-11T07:15:02.766Z,33.5
2022-12-11T07:30:03.804Z,33
2022-12-11T07:45:05.177Z,33
2022-12-11T08:00:04.967Z,33
2022-12-11T08:15:03.736Z,32.5
2022-12-11T08:30:04.141Z,32.5
2022-12-11T08:45:02.005Z,32
2022-12-11T09:00:06.232Z,31.5
2022-12-11T09:15:04.757Z,31
2022-12-11T09:30:06.047Z,31
2022-12-11T09:45:02.230Z,31
2022-12-11T10:00:03.840Z,30.5
2022-12-11T10:15:03.760Z,30.5
2022-12-11T10:30:04.663Z,30
2022-12-11T10:45:02.029Z,30
2022-12-11T11:00:06.167Z,30
2022-12-11T11:15:03.764Z,30
2022-12-11T11:30:06.247Z,30
2022-12-11T11:45:01.867Z,30.5
2022-12-11T12:00:04.036Z,30
2022-12-11T12:15:03.989Z,30.5
2022-12-11T12:30:04.841Z,31.5
2022-12-11T12:45:03.138Z,32
2022-12-11T13:00:05.200Z,31.5
2022-12-11T13:15:05.988Z,34
2022-12-11T13:30:03.135Z,36.5
2022-12-11T13:45:02.209Z,35
2022-12-11T14:00:03.896Z,33.5
2022-12-11T14:15:02.689Z,32.5
2022-12-11T14:30:04.678Z,32
2022-12-11T14:45:02.075Z,31.5
2022-12-11T15:00:02.658Z,32
2022-12-11T15:15:01.695Z,32.5
2022-12-11T15:30:04.930Z,32
2022-12-11T15:45:02.666Z,31.5
2022-12-11T16:00:01.731Z,31.5
2022-12-11T16:15:02.958Z,31.5
2022-12-11T16:30:04.041Z,31.5
2022-12-11T16:45:06.036Z,33
2022-12-11T17:00:02.207Z,31.5
2022-12-11T17:15:04.824Z,31.5
2022-12-11T17:30:05.172Z,32.5
2022-12-11T17:45:03.951Z,33.5
2022-12-11T18:00:01.824Z,36
2022-12-11T18:15:03.057Z,36.5
2022-12-11T18:30:04.120Z,36
2022-12-11T18:45:06.087Z,37
2022-12-11T19:00:03.157Z,37
2022-12-11T19:15:01.734Z,36.5
2022-12-11T19:30:01.901Z,35
2022-12-11T19:45:06.142Z,34
2022-12-11T20:00:02.773Z,34.5
2022-12-11T20:15:01.688Z,34.5
2022-12-11T20:30:03.974Z,35
2022-12-11T20:45:03.857Z,34.5
2022-12-11T21:00:05.796Z,34
2022-12-11T21:15:03.993Z,34
2022-12-11T21:30:04.881Z,34
2022-12-11T21:45:02.183Z,34
2022-12-11T22:00:05.757Z,33.5
2022-12-11T22:15:02.900Z,34
2022-12-11T22:30:04.064Z,33.5
2022-12-11T22:45:02.807Z,33.5
2022-12-11T23:00:05.981Z,33.5
2022-12-11T23:15:01.921Z,33.5
2022-12-11T23:30:06.126Z,33.5
2022-12-11T23:45:04.750Z,34
